Gabbs, Nevada
Current Conditions -  °F | °C
As of 7:56 AM on Friday 21 Nov 2014 (Local Time) from KNFL Reporting Station
Scattered Clouds Scattered Clouds  
Wind Chill: 33°   Ceiling: Unl
Heat Index: 37°   Visibility: 9mi
Dew Point: 28°   Wind: 5mph
Humidity: 70%   Direction: 160°SSE
Pressure: 30.07"   Gusts: NA
Location:  38.87°N, 117.92°W
Report Text: KNFL 211556Z 16004KT 9SM FEW200 SCT280 03/M02 A3007 RMK AO2 SLP151 T00281022
Loading
Personal Weather Stations






























Interactive Weather Map New forecast layout! Learn more

10-Day Weather Forecast

Advertisements
Track Severe Weather on mobile